createdAt,value
2023-04-02T00:01:52.723Z,101021.56
2023-04-02T00:04:56.259Z,101028.78
2023-04-02T00:07:57.666Z,101030.72
2023-04-02T00:11:19.708Z,101034.47
2023-04-02T00:14:28.616Z,101036.41
2023-04-02T00:17:29.868Z,101031.22
2023-04-02T00:20:31.631Z,101041.38
2023-04-02T00:23:32.708Z,101038.88
2023-04-02T00:26:37.658Z,101043.28
2023-04-02T00:29:44.692Z,101047.94
2023-04-02T00:32:46.686Z,101056.28
2023-04-02T00:35:52.707Z,101055.50
2023-04-02T00:38:53.672Z,101059.75
2023-04-02T00:41:54.708Z,101053.63
2023-04-02T00:44:56.646Z,101068.69
2023-04-02T00:47:57.695Z,101065.47
2023-04-02T00:50:58.650Z,101070.56
2023-04-02T00:54:00.689Z,101083.06
2023-04-02T00:57:03.689Z,101078.72
2023-04-02T01:00:15.674Z,101090.84
2023-04-02T01:03:35.735Z,101092.59
2023-04-02T01:06:37.676Z,101096.53
2023-04-02T01:09:56.653Z,101108.34
2023-04-02T01:13:17.681Z,101100.69
2023-04-02T01:16:18.705Z,101113.03
2023-04-02T01:19:51.859Z,101113.44
2023-04-02T01:23:15.654Z,101123.41
2023-04-02T01:26:22.678Z,101136.19
2023-04-02T01:29:52.644Z,101126.81
2023-04-02T01:32:53.736Z,101134.09
2023-04-02T01:35:57.663Z,101142.06
2023-04-02T01:39:11.670Z,101143.81
2023-04-02T01:42:15.643Z,101134.94
2023-04-02T01:45:17.664Z,101145.25
2023-04-02T01:48:30.654Z,101137.00
2023-04-02T01:51:39.677Z,101149.72
2023-04-02T01:54:44.643Z,101149.50
2023-04-02T01:57:45.684Z,101163.69
2023-04-02T02:00:48.654Z,101162.00
2023-04-02T02:03:50.688Z,101166.44
2023-04-02T02:06:51.633Z,101163.50
2023-04-02T02:09:52.701Z,101164.25
2023-04-02T02:12:54.646Z,101183.44
2023-04-02T02:15:55.713Z,101187.91
2023-04-02T02:18:56.620Z,101191.50
2023-04-02T02:21:59.834Z,101201.13
2023-04-02T02:25:00.629Z,101205.13
2023-04-02T02:28:01.673Z,101201.06
2023-04-02T02:31:24.640Z,101214.38
2023-04-02T02:34:30.678Z,101217.03
2023-04-02T02:37:32.628Z,101215.91
2023-04-02T02:40:45.672Z,101222.41
2023-04-02T02:43:48.634Z,101221.69
2023-04-02T02:46:51.693Z,101227.03
2023-04-02T02:49:58.268Z,101230.31
2023-04-02T02:53:00.677Z,101232.53
2023-04-02T02:56:03.634Z,101214.13
2023-04-02T02:59:07.660Z,101240.44
2023-04-02T03:02:09.672Z,101243.13
2023-04-02T03:05:11.658Z,101243.22
2023-04-02T03:08:13.641Z,101250.44
2023-04-02T03:11:18.642Z,101255.38
2023-04-02T03:14:34.630Z,101263.19
2023-04-02T03:18:04.719Z,101268.06
2023-04-02T03:21:07.609Z,101268.78
2023-04-02T03:24:14.831Z,101275.44
2023-04-02T03:27:23.621Z,101282.16
2023-04-02T03:30:47.665Z,101287.69
2023-04-02T03:33:51.661Z,101298.19
2023-04-02T03:37:03.656Z,101301.38
2023-04-02T03:40:14.615Z,101311.34
2023-04-02T03:43:25.661Z,101315.16
2023-04-02T03:46:36.712Z,101322.94
2023-04-02T03:49:41.655Z,101322.13
2023-04-02T03:52:42.638Z,101324.97
2023-04-02T03:55:46.664Z,101343.81
2023-04-02T03:58:53.615Z,101347.97
2023-04-02T04:02:02.689Z,101351.16
2023-04-02T04:05:05.725Z,101365.22
2023-04-02T04:08:08.664Z,101361.13
2023-04-02T04:11:12.653Z,101369.50
2023-04-02T04:14:33.664Z,101371.94
2023-04-02T04:17:41.718Z,101385.50
2023-04-02T04:20:52.649Z,101385.59
2023-04-02T04:24:03.585Z,101399.06
2023-04-02T04:27:04.763Z,101395.19
2023-04-02T04:30:16.590Z,101372.53
2023-04-02T04:33:28.656Z,101409.22
2023-04-02T04:36:44.587Z,101416.34
2023-04-02T04:39:59.646Z,101420.81
2023-04-02T04:43:01.587Z,101422.84
2023-04-02T04:46:07.721Z,101431.28
2023-04-02T04:49:12.593Z,101433.41
2023-04-02T04:52:20.646Z,101437.34
2023-04-02T04:55:39.637Z,101443.81
2023-04-02T04:58:52.676Z,101454.59
2023-04-02T05:01:59.585Z,101462.25
2023-04-02T05:05:04.679Z,101455.09
2023-04-02T05:08:09.592Z,101455.59
2023-04-02T05:11:11.673Z,101474.34
2023-04-02T05:14:14.608Z,101470.25
2023-04-02T05:17:21.667Z,101487.66
2023-04-02T05:20:33.595Z,101483.41
2023-04-02T05:23:47.669Z,101491.59
2023-04-02T05:26:53.601Z,101499.56
2023-04-02T05:29:56.823Z,101504.09
2023-04-02T05:33:00.628Z,101517.00
2023-04-02T05:36:04.737Z,101518.06
2023-04-02T05:39:10.597Z,101514.16
2023-04-02T05:42:20.662Z,101532.28
2023-04-02T05:45:34.752Z,101534.16
2023-04-02T05:48:42.617Z,101534.84
2023-04-02T05:51:48.617Z,101542.50
2023-04-02T05:54:56.628Z,101557.25
2023-04-02T05:58:29.562Z,101557.00
2023-04-02T06:01:29.614Z,101555.50
2023-04-02T06:04:35.600Z,101564.06
2023-04-02T06:07:44.616Z,101557.19
2023-04-02T06:10:50.619Z,101572.41
2023-04-02T06:13:52.643Z,101572.63
2023-04-02T06:16:53.619Z,101573.94
2023-04-02T06:19:54.661Z,101584.31
2023-04-02T06:22:57.626Z,101596.88
2023-04-02T06:26:06.636Z,101587.38
2023-04-02T06:29:13.602Z,101602.69
2023-04-02T06:32:15.805Z,101602.78
2023-04-02T06:35:16.599Z,101607.69
2023-04-02T06:38:31.641Z,101620.00
2023-04-02T06:41:36.601Z,101616.28
2023-04-02T06:44:57.641Z,101619.53
2023-04-02T06:48:15.602Z,101621.97
2023-04-02T06:51:23.639Z,101628.09
2023-04-02T06:54:28.611Z,101635.19
2023-04-02T06:57:33.739Z,101641.88
2023-04-02T07:00:52.621Z,101640.34
2023-04-02T07:04:09.622Z,101654.25
2023-04-02T07:07:12.583Z,101656.41
2023-04-02T07:10:15.640Z,101651.22
2023-04-02T07:13:16.563Z,101651.84
2023-04-02T07:16:17.707Z,101663.69
2023-04-02T07:19:18.571Z,101671.16
2023-04-02T07:22:22.642Z,101672.19
2023-04-02T07:25:26.590Z,101675.31
2023-04-02T07:28:27.626Z,101668.38
2023-04-02T07:31:29.601Z,101684.41
2023-04-02T07:34:30.674Z,101688.88
2023-04-02T07:37:31.592Z,101696.25
2023-04-02T07:40:33.625Z,101685.84
2023-04-02T07:43:34.565Z,101702.28
2023-04-02T07:46:35.636Z,101699.25
2023-04-02T07:49:36.570Z,101701.53
2023-04-02T07:52:39.137Z,101706.88
2023-04-02T07:55:41.570Z,101707.00
2023-04-02T07:58:43.601Z,101719.69
2023-04-02T08:01:44.665Z,101722.47
2023-04-02T08:04:45.624Z,101734.00
2023-04-02T08:07:46.574Z,101727.34
2023-04-02T08:10:47.607Z,101737.13
2023-04-02T08:13:48.584Z,101749.41
2023-04-02T08:16:58.744Z,101742.06
2023-04-02T08:19:59.593Z,101733.88
2023-04-02T08:23:00.632Z,101749.59
2023-04-02T08:26:01.602Z,101742.91
2023-04-02T08:29:02.627Z,101774.19
2023-04-02T08:32:03.598Z,101742.84
2023-04-02T08:35:04.786Z,101752.91
2023-04-02T08:38:05.591Z,101772.88
2023-04-02T08:41:08.624Z,101770.53
2023-04-02T08:44:44.608Z,101779.13
2023-04-02T08:47:46.647Z,101784.09
2023-04-02T08:50:52.555Z,101781.28
2023-04-02T08:53:53.611Z,101782.50
2023-04-02T08:56:57.603Z,101787.69
2023-04-02T08:59:58.615Z,101784.25
2023-04-02T09:03:10.598Z,101789.72
2023-04-02T09:06:13.145Z,101786.56
2023-04-02T09:09:14.572Z,101800.56
2023-04-02T09:12:17.613Z,101799.47
2023-04-02T09:15:18.589Z,101800.47
2023-04-02T09:18:29.634Z,101806.38
2023-04-02T09:21:36.566Z,101806.25
2023-04-02T09:24:37.706Z,101821.69
2023-04-02T09:27:42.557Z,101829.84
2023-04-02T09:30:43.618Z,101823.72
2023-04-02T09:33:54.587Z,101824.63
2023-04-02T09:36:55.803Z,101831.78
2023-04-02T09:39:56.567Z,101828.72
2023-04-02T09:42:57.617Z,101835.88
2023-04-02T09:46:08.579Z,101834.50
2023-04-02T09:49:10.580Z,101837.97
2023-04-02T09:52:20.570Z,101858.22
2023-04-02T09:55:21.598Z,101849.44
2023-04-02T09:58:22.577Z,101860.38
2023-04-02T10:01:38.671Z,101860.88
2023-04-02T10:04:58.575Z,101880.88
2023-04-02T10:08:00.603Z,101879.75
2023-04-02T10:11:03.575Z,101883.09
2023-04-02T10:14:07.590Z,101879.56
2023-04-02T10:17:12.631Z,101877.88
2023-04-02T10:20:39.048Z,101894.81
2023-04-02T10:23:43.584Z,101895.44
2023-04-02T10:26:53.605Z,101897.75
2023-04-02T10:30:12.614Z,101899.28
2023-04-02T10:33:16.590Z,101912.25
2023-04-02T10:36:43.569Z,101909.84
2023-04-02T10:40:03.721Z,101916.47
2023-04-02T10:43:22.592Z,101931.84
2023-04-02T10:46:33.637Z,101928.75
2023-04-02T10:49:41.586Z,101933.25
2023-04-02T10:52:42.585Z,101941.25
2023-04-02T10:55:47.585Z,101949.16
2023-04-02T10:58:51.594Z,101942.78
2023-04-02T11:01:54.609Z,101948.78
2023-04-02T11:04:58.452Z,101951.66
2023-04-02T11:08:08.577Z,101949.50
2023-04-02T11:11:14.636Z,101942.78
2023-04-02T11:14:19.561Z,101964.06
2023-04-02T11:17:25.615Z,101961.16
2023-04-02T11:20:44.542Z,101974.56
2023-04-02T11:23:46.600Z,101969.19
2023-04-02T11:26:47.525Z,101974.47
2023-04-02T11:29:49.608Z,101969.44
2023-04-02T11:32:53.598Z,101964.03
2023-04-02T11:35:54.656Z,101976.81
2023-04-02T11:39:14.559Z,101982.28
2023-04-02T11:42:19.912Z,101982.00
2023-04-02T11:45:28.716Z,101969.16
2023-04-02T11:48:22.617Z,101984.31
2023-04-02T11:51:35.566Z,101989.38
2023-04-02T11:54:39.611Z,102008.91
2023-04-02T11:58:00.565Z,102008.72
2023-04-02T12:01:15.608Z,102018.91
2023-04-02T12:04:16.542Z,102007.63
2023-04-02T12:07:24.589Z,102009.34
2023-04-02T12:10:32.586Z,102016.53
2023-04-02T12:13:53.592Z,102016.91
2023-04-02T12:16:54.559Z,102024.44
2023-04-02T12:19:59.606Z,102027.84
2023-04-02T12:23:02.768Z,102032.09
2023-04-02T12:26:15.602Z,102023.00
2023-04-02T12:29:34.529Z,102016.59
2023-04-02T12:32:38.636Z,102037.94
2023-04-02T12:35:41.582Z,102035.03
2023-04-02T12:38:46.557Z,102041.38
2023-04-02T12:41:50.541Z,102046.31
2023-04-02T12:44:51.753Z,102048.41
2023-04-02T12:47:50.771Z,102045.47
2023-04-02T12:50:48.597Z,102054.53
2023-04-02T12:53:50.528Z,102048.91
2023-04-02T12:56:51.584Z,102053.72
2023-04-02T12:59:53.560Z,102072.91
2023-04-02T13:02:58.667Z,102072.78
2023-04-02T13:06:17.557Z,102073.28
2023-04-02T13:09:19.571Z,102076.53
2023-04-02T13:12:20.557Z,102078.06
2023-04-02T13:15:21.598Z,102066.81
2023-04-02T13:18:35.548Z,102078.19
2023-04-02T13:21:40.575Z,102084.50
2023-04-02T13:24:42.550Z,102088.53
2023-04-02T13:27:43.594Z,102101.13
2023-04-02T13:30:44.535Z,102090.41
2023-04-02T13:33:45.587Z,102104.84
2023-04-02T13:36:46.518Z,102114.59
2023-04-02T13:39:47.579Z,102103.84
2023-04-02T13:42:48.534Z,102109.91
2023-04-02T13:45:52.760Z,102120.00
2023-04-02T13:48:47.007Z,102120.19
2023-04-02T13:51:44.611Z,102119.69
2023-04-02T13:54:45.526Z,102121.97
2023-04-02T13:57:46.603Z,102146.41
2023-04-02T14:00:49.534Z,102128.97
2023-04-02T14:03:50.572Z,102129.59
2023-04-02T14:07:00.529Z,102131.28
2023-04-02T14:10:01.597Z,102136.94
2023-04-02T14:13:08.544Z,102134.41
2023-04-02T14:16:18.657Z,102145.38
2023-04-02T14:19:34.559Z,102135.41
2023-04-02T14:22:41.585Z,102141.50
2023-04-02T14:25:54.520Z,102152.94
2023-04-02T14:29:13.563Z,102156.38
2023-04-02T14:32:14.618Z,102150.13
2023-04-02T14:35:34.568Z,102154.88
2023-04-02T14:38:44.535Z,102160.66
2023-04-02T14:41:45.678Z,102150.38
2023-04-02T14:44:50.562Z,102160.69
2023-04-02T14:47:54.757Z,102166.41
2023-04-02T14:50:48.697Z,102162.84
2023-04-02T14:53:49.577Z,102167.16
2023-04-02T14:56:53.531Z,102182.44
2023-04-02T14:59:54.550Z,102184.81
2023-04-02T15:02:58.609Z,102176.78
2023-04-02T15:06:00.785Z,102189.50
2023-04-02T15:09:09.252Z,102188.59
2023-04-02T15:12:15.544Z,102196.69
2023-04-02T15:15:33.070Z,102199.31
2023-04-02T15:18:39.555Z,102206.56
2023-04-02T15:21:57.632Z,102208.63
2023-04-02T15:25:09.549Z,102208.91
2023-04-02T15:28:28.531Z,102212.13
2023-04-02T15:31:29.619Z,102212.28
2023-04-02T15:34:41.524Z,102210.44
2023-04-02T15:37:57.568Z,102208.94
2023-04-02T15:41:24.530Z,102212.63
2023-04-02T15:44:27.568Z,102226.88
2023-04-02T15:47:40.554Z,102242.25
2023-04-02T15:50:59.760Z,102240.13
2023-04-02T15:54:06.546Z,102249.19
2023-04-02T15:57:19.643Z,102240.22
2023-04-02T16:00:38.573Z,102242.31
2023-04-02T16:03:45.575Z,102252.41
2023-04-02T16:06:59.517Z,102261.25
2023-04-02T16:10:00.557Z,102260.75
2023-04-02T16:13:03.508Z,102262.38
2023-04-02T16:16:06.552Z,102265.97
2023-04-02T16:19:16.076Z,102272.78
2023-04-02T16:22:35.549Z,102267.72
2023-04-02T16:25:38.507Z,102288.41
2023-04-02T16:28:44.558Z,102288.41
2023-04-02T16:32:07.757Z,102301.75
2023-04-02T16:38:30.488Z,102294.94
2023-04-02T16:41:31.569Z,102314.44
2023-04-02T16:44:42.513Z,102316.03
2023-04-02T16:47:56.620Z,102327.53
2023-04-02T16:50:57.509Z,102329.16
2023-04-02T16:54:04.964Z,102334.38
2023-04-02T16:57:34.559Z,102332.31
2023-04-02T17:00:43.553Z,102344.75
2023-04-02T17:04:02.556Z,102356.22
2023-04-02T17:07:15.553Z,102359.91
2023-04-02T17:10:25.494Z,102359.34
2023-04-02T17:13:47.567Z,102365.41
2023-04-02T17:16:54.497Z,102387.25
2023-04-02T17:19:56.614Z,102387.72
2023-04-02T17:22:57.511Z,102390.34
2023-04-02T17:26:01.563Z,102383.94
2023-04-02T17:29:04.516Z,102391.13
2023-04-02T17:32:05.653Z,102406.47
2023-04-02T17:35:06.521Z,102403.25
2023-04-02T17:38:07.553Z,102414.59
2023-04-02T17:41:13.506Z,102419.75
2023-04-02T17:44:30.526Z,102414.53
2023-04-02T17:47:36.543Z,102416.19
2023-04-02T17:50:58.563Z,102434.94
2023-04-02T17:54:17.514Z,102434.81
2023-04-02T17:57:53.733Z,102437.19
2023-04-02T18:00:56.508Z,102436.34
2023-04-02T18:04:12.546Z,102455.53
2023-04-02T18:07:23.502Z,102448.53
2023-04-02T18:10:42.536Z,102455.78
2023-04-02T18:13:45.487Z,102464.84
2023-04-02T18:17:03.531Z,102466.13
2023-04-02T18:20:10.514Z,102471.66
2023-04-02T18:23:17.568Z,102478.88
2023-04-02T18:26:18.493Z,102469.88
2023-04-02T18:29:21.522Z,102484.88
2023-04-02T18:32:37.537Z,102489.66
2023-04-02T18:35:48.528Z,102483.41
2023-04-02T18:39:08.490Z,102480.91
2023-04-02T18:42:18.514Z,102491.09
2023-04-02T18:45:19.508Z,102499.59
2023-04-02T18:48:38.526Z,102498.75
2023-04-02T18:51:41.497Z,102505.69
2023-04-02T18:54:42.526Z,102509.28
2023-04-02T18:57:45.516Z,102518.91
2023-04-02T19:00:47.516Z,102523.06
2023-04-02T19:03:54.565Z,102522.69
2023-04-02T19:06:57.530Z,102524.75
2023-04-02T19:09:58.499Z,102530.72
2023-04-02T19:12:59.570Z,102530.91
2023-04-02T19:16:02.578Z,102524.13
2023-04-02T19:19:09.541Z,102534.78
2023-04-02T19:22:25.489Z,102537.34
2023-04-02T19:25:38.679Z,102546.44
2023-04-02T19:29:02.520Z,102557.47
2023-04-02T19:32:03.507Z,102555.31
2023-04-02T19:35:30.493Z,102562.09
2023-04-02T19:38:47.528Z,102568.78
2023-04-02T19:42:01.500Z,102576.25
2023-04-02T19:45:03.525Z,102580.34
2023-04-02T19:48:04.543Z,102575.94
2023-04-02T19:51:05.522Z,102586.19
2023-04-02T19:54:06.490Z,102587.19
2023-04-02T19:57:07.572Z,102596.06
2023-04-02T20:00:08.482Z,102594.66
2023-04-02T20:03:09.721Z,102609.88
2023-04-02T20:06:10.491Z,102601.03
2023-04-02T20:09:11.536Z,102597.31
2023-04-02T20:12:12.478Z,102602.78
2023-04-02T20:15:13.556Z,102612.19
2023-04-02T20:18:14.464Z,102607.81
2023-04-02T20:21:24.529Z,102614.38
2023-04-02T20:24:25.479Z,102621.09
2023-04-02T20:27:26.509Z,102624.59
2023-04-02T20:30:27.495Z,102624.59
2023-04-02T20:33:28.621Z,102622.63
2023-04-02T20:36:29.493Z,102620.72
2023-04-02T20:39:30.514Z,102621.63
2023-04-02T20:42:31.504Z,102624.75
2023-04-02T20:45:34.528Z,102628.69
2023-04-02T20:48:37.490Z,102628.47
2023-04-02T20:51:38.528Z,102632.56
2023-04-02T20:54:39.492Z,102627.22
2023-04-02T20:57:42.537Z,102633.31
2023-04-02T21:00:43.516Z,102627.38
2023-04-02T21:03:44.839Z,102631.94
2023-04-02T21:06:46.494Z,102634.94
2023-04-02T21:09:47.506Z,102634.03
2023-04-02T21:12:48.472Z,102631.94
2023-04-02T21:15:53.582Z,102643.31
2023-04-02T21:18:54.488Z,102632.72
2023-04-02T21:21:55.508Z,102639.66
2023-04-02T21:24:56.457Z,102639.47
2023-04-02T21:27:57.528Z,102646.16
2023-04-02T21:30:58.447Z,102644.16
2023-04-02T21:34:00.501Z,102647.00
2023-04-02T21:37:01.468Z,102653.66
2023-04-02T21:40:02.523Z,102648.91
2023-04-02T21:43:03.481Z,102655.19
2023-04-02T21:46:04.528Z,102661.16
2023-04-02T21:49:05.474Z,102669.53
2023-04-02T21:52:06.512Z,102666.94
2023-04-02T21:55:07.473Z,102661.88
2023-04-02T21:58:08.511Z,102664.84
2023-04-02T22:01:16.956Z,102662.06
2023-04-02T22:04:28.774Z,102672.78
2023-04-02T22:07:29.472Z,102677.78
2023-04-02T22:10:30.500Z,102678.47
2023-04-02T22:13:31.461Z,102685.50
2023-04-02T22:16:33.526Z,102683.91
2023-04-02T22:19:34.578Z,102686.41
2023-04-02T22:22:35.482Z,102689.25
2023-04-02T22:25:36.471Z,102693.16
2023-04-02T22:28:37.501Z,102694.84
2023-04-02T22:31:39.526Z,102697.47
2023-04-02T22:34:40.501Z,102700.25
2023-04-02T22:37:41.441Z,102700.41
2023-04-02T22:40:42.508Z,102704.72
2023-04-02T22:43:43.436Z,102705.09
2023-04-02T22:46:44.496Z,102700.84
2023-04-02T22:49:45.443Z,102709.63
2023-04-02T22:52:46.518Z,102710.16
2023-04-02T22:55:47.453Z,102701.22
2023-04-02T22:58:48.507Z,102709.25
2023-04-02T23:01:49.572Z,102714.00
2023-04-02T23:04:50.605Z,102710.84
2023-04-02T23:07:51.459Z,102711.38
2023-04-02T23:10:52.500Z,102710.66
2023-04-02T23:13:53.461Z,102709.47
2023-04-02T23:16:54.507Z,102713.63
2023-04-02T23:19:55.465Z,102719.00
2023-04-02T23:22:56.502Z,102722.56
2023-04-02T23:25:57.447Z,102728.06
2023-04-02T23:28:58.487Z,102729.31
2023-04-02T23:31:59.442Z,102731.50
2023-04-02T23:35:00.505Z,102730.78
2023-04-02T23:38:04.445Z,102738.66
2023-04-02T23:41:05.480Z,102743.03
2023-04-02T23:44:06.472Z,102742.13
2023-04-02T23:47:08.498Z,102737.59
2023-04-02T23:50:09.458Z,102743.19
2023-04-02T23:53:10.490Z,102740.22
2023-04-02T23:56:11.456Z,102748.56
2023-04-02T23:59:12.486Z,102748.66
